Terminal Aerodrome Forecast
Issued by NWS

Current Version | Previous Version | Text Only | Print | Product List | Glossary On
Versions: 1 2 3 4 5 6 7 8 9 10 11 12 13 14 15 16 17 18 19 20
000
FTUS43 KIND 211700
TAFBMG
TAF
KBMG 211720Z 2118/2218 30012G19KT P6SM SCT035
     FM211930 35012KT P6SM BKN035
     FM220100 34005KT P6SM SCT030
     FM220400 34004KT P6SM SKC
     FM221400 01006KT P6SM SKC=

USA.gov is the U.S. government's official web portal to all federal, state and local government web resources and services.